sensor_id;sensor_type;location;lat;lon;timestamp;temperature;humidity
54590;DHT22;40485;53.172;5.416;2022-08-21T00:02:26;20.00;95.80
54590;DHT22;40485;53.172;5.416;2022-08-21T00:04:53;20.00;95.90
54590;DHT22;40485;53.172;5.416;2022-08-21T00:07:19;19.90;96.00
54590;DHT22;40485;53.172;5.416;2022-08-21T00:09:45;20.00;95.90
54590;DHT22;40485;53.172;5.416;2022-08-21T00:12:10;20.00;96.20
54590;DHT22;40485;53.172;5.416;2022-08-21T00:14:36;20.00;96.00
54590;DHT22;40485;53.172;5.416;2022-08-21T00:17:01;20.00;96.00
54590;DHT22;40485;53.172;5.416;2022-08-21T00:19:27;19.90;96.10
54590;DHT22;40485;53.172;5.416;2022-08-21T00:21:54;20.00;96.10
54590;DHT22;40485;53.172;5.416;2022-08-21T00:24:20;20.00;96.40
54590;DHT22;40485;53.172;5.416;2022-08-21T00:26:46;20.00;96.30
54590;DHT22;40485;53.172;5.416;2022-08-21T00:29:12;20.00;96.40
54590;DHT22;40485;53.172;5.416;2022-08-21T00:31:39;20.00;96.30
54590;DHT22;40485;53.172;5.416;2022-08-21T00:34:04;20.00;96.10
54590;DHT22;40485;53.172;5.416;2022-08-21T00:36:30;19.90;96.20
54590;DHT22;40485;53.172;5.416;2022-08-21T00:38:56;19.90;96.20
54590;DHT22;40485;53.172;5.416;2022-08-21T00:41:22;19.90;96.10
54590;DHT22;40485;53.172;5.416;2022-08-21T00:43:48;19.90;96.30
54590;DHT22;40485;53.172;5.416;2022-08-21T00:46:14;20.00;96.60
54590;DHT22;40485;53.172;5.416;2022-08-21T00:48:39;19.90;96.20
54590;DHT22;40485;53.172;5.416;2022-08-21T00:51:09;20.00;96.20
54590;DHT22;40485;53.172;5.416;2022-08-21T00:53:36;20.00;96.40
54590;DHT22;40485;53.172;5.416;2022-08-21T00:56:03;20.00;96.30
54590;DHT22;40485;53.172;5.416;2022-08-21T00:58:29;20.00;96.10
54590;DHT22;40485;53.172;5.416;2022-08-21T01:00:56;19.90;96.10
54590;DHT22;40485;53.172;5.416;2022-08-21T01:03:23;20.00;96.20
54590;DHT22;40485;53.172;5.416;2022-08-21T01:05:51;20.00;96.20
54590;DHT22;40485;53.172;5.416;2022-08-21T01:08:17;20.00;96.40
54590;DHT22;40485;53.172;5.416;2022-08-21T01:10:43;20.00;96.20
54590;DHT22;40485;53.172;5.416;2022-08-21T01:13:09;20.00;96.40
54590;DHT22;40485;53.172;5.416;2022-08-21T01:15:36;19.90;96.50
54590;DHT22;40485;53.172;5.416;2022-08-21T01:18:03;19.90;96.70
54590;DHT22;40485;53.172;5.416;2022-08-21T01:20:29;20.00;96.60
54590;DHT22;40485;53.172;5.416;2022-08-21T01:22:55;19.90;96.60
54590;DHT22;40485;53.172;5.416;2022-08-21T01:25:21;20.00;96.60
54590;DHT22;40485;53.172;5.416;2022-08-21T01:27:46;19.90;96.60
54590;DHT22;40485;53.172;5.416;2022-08-21T01:30:14;19.90;96.80
54590;DHT22;40485;53.172;5.416;2022-08-21T01:32:40;19.90;96.60
54590;DHT22;40485;53.172;5.416;2022-08-21T01:35:06;19.90;96.70
54590;DHT22;40485;53.172;5.416;2022-08-21T01:37:32;19.90;96.70
54590;DHT22;40485;53.172;5.416;2022-08-21T01:39:58;19.90;96.80
54590;DHT22;40485;53.172;5.416;2022-08-21T01:42:24;19.80;96.90
54590;DHT22;40485;53.172;5.416;2022-08-21T01:44:49;19.80;97.00
54590;DHT22;40485;53.172;5.416;2022-08-21T01:47:15;19.80;97.00
54590;DHT22;40485;53.172;5.416;2022-08-21T01:49:41;19.90;97.10
54590;DHT22;40485;53.172;5.416;2022-08-21T01:52:07;19.90;97.20
54590;DHT22;40485;53.172;5.416;2022-08-21T01:54:32;19.90;97.50
54590;DHT22;40485;53.172;5.416;2022-08-21T01:56:58;19.90;97.60
54590;DHT22;40485;53.172;5.416;2022-08-21T01:59:24;19.90;97.60
54590;DHT22;40485;53.172;5.416;2022-08-21T02:01:50;19.90;97.60
54590;DHT22;40485;53.172;5.416;2022-08-21T02:04:16;19.90;97.90
54590;DHT22;40485;53.172;5.416;2022-08-21T02:06:41;19.90;98.10
54590;DHT22;40485;53.172;5.416;2022-08-21T02:09:08;20.00;98.00
54590;DHT22;40485;53.172;5.416;2022-08-21T02:11:34;20.00;98.10
54590;DHT22;40485;53.172;5.416;2022-08-21T02:14:00;20.00;98.10
54590;DHT22;40485;53.172;5.416;2022-08-21T02:16:25;19.80;98.00
54590;DHT22;40485;53.172;5.416;2022-08-21T02:18:51;19.90;98.00
54590;DHT22;40485;53.172;5.416;2022-08-21T02:21:16;20.00;98.20
54590;DHT22;40485;53.172;5.416;2022-08-21T02:23:42;19.90;97.90
54590;DHT22;40485;53.172;5.416;2022-08-21T02:26:08;20.00;98.30
54590;DHT22;40485;53.172;5.416;2022-08-21T02:28:34;20.00;98.10
54590;DHT22;40485;53.172;5.416;2022-08-21T02:31:00;20.10;98.30
54590;DHT22;40485;53.172;5.416;2022-08-21T02:33:26;20.00;98.30
54590;DHT22;40485;53.172;5.416;2022-08-21T02:35:52;20.10;98.30
54590;DHT22;40485;53.172;5.416;2022-08-21T02:38:29;20.00;98.00
54590;DHT22;40485;53.172;5.416;2022-08-21T02:40:55;20.00;97.80
54590;DHT22;40485;53.172;5.416;2022-08-21T02:43:22;19.90;98.30
54590;DHT22;40485;53.172;5.416;2022-08-21T02:45:49;20.00;98.30
54590;DHT22;40485;53.172;5.416;2022-08-21T02:48:16;20.00;98.20
54590;DHT22;40485;53.172;5.416;2022-08-21T02:50:47;19.90;98.10
54590;DHT22;40485;53.172;5.416;2022-08-21T02:53:14;19.90;98.10
54590;DHT22;40485;53.172;5.416;2022-08-21T02:55:42;19.90;97.90
54590;DHT22;40485;53.172;5.416;2022-08-21T02:58:08;20.00;98.10
54590;DHT22;40485;53.172;5.416;2022-08-21T03:00:34;20.00;98.10
54590;DHT22;40485;53.172;5.416;2022-08-21T03:03:00;20.00;98.60
54590;DHT22;40485;53.172;5.416;2022-08-21T03:05:26;19.90;98.20
54590;DHT22;40485;53.172;5.416;2022-08-21T03:07:53;19.90;98.40
54590;DHT22;40485;53.172;5.416;2022-08-21T03:10:20;19.90;98.40
54590;DHT22;40485;53.172;5.416;2022-08-21T03:12:46;19.90;98.80
54590;DHT22;40485;53.172;5.416;2022-08-21T03:15:12;19.90;98.90
54590;DHT22;40485;53.172;5.416;2022-08-21T03:17:38;20.00;98.70
54590;DHT22;40485;53.172;5.416;2022-08-21T03:20:04;19.90;98.90
54590;DHT22;40485;53.172;5.416;2022-08-21T03:22:30;19.90;99.30
54590;DHT22;40485;53.172;5.416;2022-08-21T03:24:55;19.90;99.00
54590;DHT22;40485;53.172;5.416;2022-08-21T03:27:22;19.90;99.10
54590;DHT22;40485;53.172;5.416;2022-08-21T03:29:48;19.90;99.10
54590;DHT22;40485;53.172;5.416;2022-08-21T03:32:13;19.90;99.50
54590;DHT22;40485;53.172;5.416;2022-08-21T03:34:39;19.80;99.40
54590;DHT22;40485;53.172;5.416;2022-08-21T03:37:05;19.80;99.30
54590;DHT22;40485;53.172;5.416;2022-08-21T03:39:31;19.90;99.30
54590;DHT22;40485;53.172;5.416;2022-08-21T03:41:56;19.90;99.30
54590;DHT22;40485;53.172;5.416;2022-08-21T03:44:23;19.90;99.10
54590;DHT22;40485;53.172;5.416;2022-08-21T03:46:48;19.80;99.50
54590;DHT22;40485;53.172;5.416;2022-08-21T03:49:14;19.80;99.20
54590;DHT22;40485;53.172;5.416;2022-08-21T03:51:39;19.80;99.20
54590;DHT22;40485;53.172;5.416;2022-08-21T03:54:05;19.90;99.00
54590;DHT22;40485;53.172;5.416;2022-08-21T03:56:30;19.80;99.10
54590;DHT22;40485;53.172;5.416;2022-08-21T03:58:56;19.80;99.30
54590;DHT22;40485;53.172;5.416;2022-08-21T04:01:22;19.80;99.30
54590;DHT22;40485;53.172;5.416;2022-08-21T04:03:47;19.80;99.40
54590;DHT22;40485;53.172;5.416;2022-08-21T04:06:13;19.80;99.10
54590;DHT22;40485;53.172;5.416;2022-08-21T04:08:38;19.80;99.10
54590;DHT22;40485;53.172;5.416;2022-08-21T04:11:04;19.80;99.40
54590;DHT22;40485;53.172;5.416;2022-08-21T04:13:30;19.80;99.50
54590;DHT22;40485;53.172;5.416;2022-08-21T04:15:56;19.80;99.70
54590;DHT22;40485;53.172;5.416;2022-08-21T04:18:23;19.70;99.40
54590;DHT22;40485;53.172;5.416;2022-08-21T04:20:49;19.80;99.40
54590;DHT22;40485;53.172;5.416;2022-08-21T04:23:17;19.80;99.30
54590;DHT22;40485;53.172;5.416;2022-08-21T04:25:43;19.80;99.30
54590;DHT22;40485;53.172;5.416;2022-08-21T04:28:08;19.90;99.50
54590;DHT22;40485;53.172;5.416;2022-08-21T04:30:34;19.80;99.30
54590;DHT22;40485;53.172;5.416;2022-08-21T04:32:59;19.80;99.40
54590;DHT22;40485;53.172;5.416;2022-08-21T04:35:26;19.80;99.30
54590;DHT22;40485;53.172;5.416;2022-08-21T04:37:51;19.80;99.10
54590;DHT22;40485;53.172;5.416;2022-08-21T04:40:17;19.80;99.30
54590;DHT22;40485;53.172;5.416;2022-08-21T04:42:47;19.80;99.50
54590;DHT22;40485;53.172;5.416;2022-08-21T04:45:19;19.90;99.40
54590;DHT22;40485;53.172;5.416;2022-08-21T04:47:46;19.80;99.30
54590;DHT22;40485;53.172;5.416;2022-08-21T04:50:12;19.80;99.50
54590;DHT22;40485;53.172;5.416;2022-08-21T04:52:37;19.80;99.60
54590;DHT22;40485;53.172;5.416;2022-08-21T04:55:03;19.80;99.60
54590;DHT22;40485;53.172;5.416;2022-08-21T04:57:29;19.90;99.60
54590;DHT22;40485;53.172;5.416;2022-08-21T04:59:54;19.80;99.60
54590;DHT22;40485;53.172;5.416;2022-08-21T05:02:20;19.90;99.90
54590;DHT22;40485;53.172;5.416;2022-08-21T05:04:48;19.80;99.90
54590;DHT22;40485;53.172;5.416;2022-08-21T05:07:16;20.00;99.90
54590;DHT22;40485;53.172;5.416;2022-08-21T05:09:42;19.80;99.90
54590;DHT22;40485;53.172;5.416;2022-08-21T05:12:08;19.80;99.90
54590;DHT22;40485;53.172;5.416;2022-08-21T05:14:34;19.90;99.90
54590;DHT22;40485;53.172;5.416;2022-08-21T05:17:00;19.80;99.90
54590;DHT22;40485;53.172;5.416;2022-08-21T05:19:25;19.90;99.90
54590;DHT22;40485;53.172;5.416;2022-08-21T05:21:51;19.80;99.90
54590;DHT22;40485;53.172;5.416;2022-08-21T05:24:17;19.80;99.90
54590;DHT22;40485;53.172;5.416;2022-08-21T05:26:43;19.90;99.90
54590;DHT22;40485;53.172;5.416;2022-08-21T05:29:08;19.80;99.90
54590;DHT22;40485;53.172;5.416;2022-08-21T05:31:34;19.80;99.90
54590;DHT22;40485;53.172;5.416;2022-08-21T05:33:59;19.90;99.90
54590;DHT22;40485;53.172;5.416;2022-08-21T05:36:25;19.80;99.90
54590;DHT22;40485;53.172;5.416;2022-08-21T05:38:50;19.90;99.90
54590;DHT22;40485;53.172;5.416;2022-08-21T05:41:16;19.80;99.90
54590;DHT22;40485;53.172;5.416;2022-08-21T05:43:41;19.80;99.90
54590;DHT22;40485;53.172;5.416;2022-08-21T05:46:07;19.80;99.90
54590;DHT22;40485;53.172;5.416;2022-08-21T05:48:33;19.80;99.90
54590;DHT22;40485;53.172;5.416;2022-08-21T05:51:03;19.80;99.90
54590;DHT22;40485;53.172;5.416;2022-08-21T05:53:29;19.80;99.90
54590;DHT22;40485;53.172;5.416;2022-08-21T05:55:55;19.80;99.90
54590;DHT22;40485;53.172;5.416;2022-08-21T05:58:21;19.80;99.90
54590;DHT22;40485;53.172;5.416;2022-08-21T06:00:47;19.80;99.90
54590;DHT22;40485;53.172;5.416;2022-08-21T06:03:14;19.80;99.90
54590;DHT22;40485;53.172;5.416;2022-08-21T06:05:42;19.80;99.90
54590;DHT22;40485;53.172;5.416;2022-08-21T06:08:07;19.80;99.90
54590;DHT22;40485;53.172;5.416;2022-08-21T06:10:33;19.90;99.90
54590;DHT22;40485;53.172;5.416;2022-08-21T06:12:58;19.90;99.90
54590;DHT22;40485;53.172;5.416;2022-08-21T06:15:24;19.80;99.90
54590;DHT22;40485;53.172;5.416;2022-08-21T06:17:49;19.90;99.90
54590;DHT22;40485;53.172;5.416;2022-08-21T06:20:15;19.80;99.90
54590;DHT22;40485;53.172;5.416;2022-08-21T06:22:40;19.80;99.90
54590;DHT22;40485;53.172;5.416;2022-08-21T06:25:06;19.90;99.90
54590;DHT22;40485;53.172;5.416;2022-08-21T06:27:31;19.90;99.90
54590;DHT22;40485;53.172;5.416;2022-08-21T06:29:57;19.80;99.90
54590;DHT22;40485;53.172;5.416;2022-08-21T06:32:23;19.80;99.90
54590;DHT22;40485;53.172;5.416;2022-08-21T06:34:48;19.90;99.90
54590;DHT22;40485;53.172;5.416;2022-08-21T06:37:14;19.90;99.90
54590;DHT22;40485;53.172;5.416;2022-08-21T06:39:39;19.90;99.90
54590;DHT22;40485;53.172;5.416;2022-08-21T06:42:05;19.90;99.90
54590;DHT22;40485;53.172;5.416;2022-08-21T06:44:30;19.90;99.90
54590;DHT22;40485;53.172;5.416;2022-08-21T06:46:56;20.00;99.90
54590;DHT22;40485;53.172;5.416;2022-08-21T06:49:22;19.90;99.90
54590;DHT22;40485;53.172;5.416;2022-08-21T06:51:47;20.00;99.90
54590;DHT22;40485;53.172;5.416;2022-08-21T06:54:13;20.00;99.90
54590;DHT22;40485;53.172;5.416;2022-08-21T06:56:38;20.00;99.90
54590;DHT22;40485;53.172;5.416;2022-08-21T06:59:04;20.00;99.90
54590;DHT22;40485;53.172;5.416;2022-08-21T07:01:30;20.00;99.90
54590;DHT22;40485;53.172;5.416;2022-08-21T07:03:56;20.00;99.90
54590;DHT22;40485;53.172;5.416;2022-08-21T07:06:21;20.10;99.90
54590;DHT22;40485;53.172;5.416;2022-08-21T07:08:47;20.10;99.90
54590;DHT22;40485;53.172;5.416;2022-08-21T07:11:15;20.10;99.90
54590;DHT22;40485;53.172;5.416;2022-08-21T07:13:41;20.20;99.90
54590;DHT22;40485;53.172;5.416;2022-08-21T07:16:07;20.20;99.90
54590;DHT22;40485;53.172;5.416;2022-08-21T07:18:33;20.20;99.90
54590;DHT22;40485;53.172;5.416;2022-08-21T07:21:00;20.10;99.90
54590;DHT22;40485;53.172;5.416;2022-08-21T07:23:30;20.20;99.90
54590;DHT22;40485;53.172;5.416;2022-08-21T07:25:57;20.20;99.90
54590;DHT22;40485;53.172;5.416;2022-08-21T07:28:24;20.20;99.90
54590;DHT22;40485;53.172;5.416;2022-08-21T07:30:50;20.30;99.90
54590;DHT22;40485;53.172;5.416;2022-08-21T07:33:16;20.30;99.90
54590;DHT22;40485;53.172;5.416;2022-08-21T07:35:42;20.30;99.90
54590;DHT22;40485;53.172;5.416;2022-08-21T07:38:07;20.40;99.90
54590;DHT22;40485;53.172;5.416;2022-08-21T07:40:33;20.50;99.90
54590;DHT22;40485;53.172;5.416;2022-08-21T07:42:58;20.40;99.90
54590;DHT22;40485;53.172;5.416;2022-08-21T07:45:24;20.50;99.90
54590;DHT22;40485;53.172;5.416;2022-08-21T07:47:49;20.60;99.90
54590;DHT22;40485;53.172;5.416;2022-08-21T07:50:15;20.70;99.90
54590;DHT22;40485;53.172;5.416;2022-08-21T07:52:41;20.70;99.90
54590;DHT22;40485;53.172;5.416;2022-08-21T07:55:10;20.70;99.80
54590;DHT22;40485;53.172;5.416;2022-08-21T07:57:36;20.80;99.70
54590;DHT22;40485;53.172;5.416;2022-08-21T08:00:09;20.90;99.60
54590;DHT22;40485;53.172;5.416;2022-08-21T08:02:35;21.00;99.70
54590;DHT22;40485;53.172;5.416;2022-08-21T08:05:01;21.00;99.10
54590;DHT22;40485;53.172;5.416;2022-08-21T08:07:27;21.10;98.30
54590;DHT22;40485;53.172;5.416;2022-08-21T08:09:52;21.10;97.80
54590;DHT22;40485;53.172;5.416;2022-08-21T08:12:18;21.20;97.80
54590;DHT22;40485;53.172;5.416;2022-08-21T08:14:44;21.20;97.80
54590;DHT22;40485;53.172;5.416;2022-08-21T08:17:09;21.30;97.60
54590;DHT22;40485;53.172;5.416;2022-08-21T08:19:35;21.40;97.90
54590;DHT22;40485;53.172;5.416;2022-08-21T08:22:01;21.50;97.90
54590;DHT22;40485;53.172;5.416;2022-08-21T08:24:26;21.50;98.00
54590;DHT22;40485;53.172;5.416;2022-08-21T08:26:52;21.60;98.20
54590;DHT22;40485;53.172;5.416;2022-08-21T08:29:20;21.60;97.90
54590;DHT22;40485;53.172;5.416;2022-08-21T08:31:45;21.60;98.20
54590;DHT22;40485;53.172;5.416;2022-08-21T08:34:11;21.70;98.20
54590;DHT22;40485;53.172;5.416;2022-08-21T08:36:36;21.70;97.90
54590;DHT22;40485;53.172;5.416;2022-08-21T08:39:03;21.70;97.40
54590;DHT22;40485;53.172;5.416;2022-08-21T08:41:29;21.80;97.30
54590;DHT22;40485;53.172;5.416;2022-08-21T08:43:58;21.80;97.10
54590;DHT22;40485;53.172;5.416;2022-08-21T08:46:35;21.90;97.20
54590;DHT22;40485;53.172;5.416;2022-08-21T08:49:05;22.00;96.10
54590;DHT22;40485;53.172;5.416;2022-08-21T08:51:39;22.10;95.70
54590;DHT22;40485;53.172;5.416;2022-08-21T08:54:07;22.20;95.90
54590;DHT22;40485;53.172;5.416;2022-08-21T08:56:34;22.30;94.90
54590;DHT22;40485;53.172;5.416;2022-08-21T08:59:02;22.40;94.60
54590;DHT22;40485;53.172;5.416;2022-08-21T09:01:29;22.50;94.40
54590;DHT22;40485;53.172;5.416;2022-08-21T09:03:55;22.60;93.70
54590;DHT22;40485;53.172;5.416;2022-08-21T09:09:02;22.80;92.00
54590;DHT22;40485;53.172;5.416;2022-08-21T09:11:41;22.90;90.90
54590;DHT22;40485;53.172;5.416;2022-08-21T09:16:50;23.20;91.50
54590;DHT22;40485;53.172;5.416;2022-08-21T09:27:04;23.70;90.20
54590;DHT22;40485;53.172;5.416;2022-08-21T09:29:33;23.80;90.20
54590;DHT22;40485;53.172;5.416;2022-08-21T09:31:59;23.90;89.10
54590;DHT22;40485;53.172;5.416;2022-08-21T09:34:29;24.00;87.90
54590;DHT22;40485;53.172;5.416;2022-08-21T09:36:55;24.10;87.60
54590;DHT22;40485;53.172;5.416;2022-08-21T09:39:25;24.20;87.80
54590;DHT22;40485;53.172;5.416;2022-08-21T09:41:56;24.40;87.00
54590;DHT22;40485;53.172;5.416;2022-08-21T09:44:26;24.50;87.20
54590;DHT22;40485;53.172;5.416;2022-08-21T09:46:52;24.60;84.80
54590;DHT22;40485;53.172;5.416;2022-08-21T09:49:26;24.60;84.60
54590;DHT22;40485;53.172;5.416;2022-08-21T09:51:52;24.60;85.00
54590;DHT22;40485;53.172;5.416;2022-08-21T09:54:29;24.70;85.90
54590;DHT22;40485;53.172;5.416;2022-08-21T09:56:56;24.70;84.90
54590;DHT22;40485;53.172;5.416;2022-08-21T09:59:41;24.80;85.80
54590;DHT22;40485;53.172;5.416;2022-08-21T10:04:52;24.80;84.00
54590;DHT22;40485;53.172;5.416;2022-08-21T10:07:20;24.90;84.80
54590;DHT22;40485;53.172;5.416;2022-08-21T10:09:45;25.10;82.60
54590;DHT22;40485;53.172;5.416;2022-08-21T10:20:06;25.40;80.60
54590;DHT22;40485;53.172;5.416;2022-08-21T10:33:13;25.50;79.00
54590;DHT22;40485;53.172;5.416;2022-08-21T10:35:47;25.60;78.10
54590;DHT22;40485;53.172;5.416;2022-08-21T10:40:45;25.60;78.00
54590;DHT22;40485;53.172;5.416;2022-08-21T10:43:16;25.70;78.50
54590;DHT22;40485;53.172;5.416;2022-08-21T10:45:57;25.70;79.50
54590;DHT22;40485;53.172;5.416;2022-08-21T10:51:06;25.80;77.10
54590;DHT22;40485;53.172;5.416;2022-08-21T10:53:43;25.80;76.40
54590;DHT22;40485;53.172;5.416;2022-08-21T10:56:13;25.90;77.20
54590;DHT22;40485;53.172;5.416;2022-08-21T10:59:00;25.90;77.60
54590;DHT22;40485;53.172;5.416;2022-08-21T11:01:41;26.00;77.00
54590;DHT22;40485;53.172;5.416;2022-08-21T11:04:25;26.10;78.00
54590;DHT22;40485;53.172;5.416;2022-08-21T11:06:57;26.20;77.00
54590;DHT22;40485;53.172;5.416;2022-08-21T11:09:24;26.20;76.90
54590;DHT22;40485;53.172;5.416;2022-08-21T11:12:05;26.20;77.50
54590;DHT22;40485;53.172;5.416;2022-08-21T11:14:48;26.30;77.00
54590;DHT22;40485;53.172;5.416;2022-08-21T11:17:18;26.40;76.60
54590;DHT22;40485;53.172;5.416;2022-08-21T11:20:08;26.40;75.90
54590;DHT22;40485;53.172;5.416;2022-08-21T11:22:43;26.60;75.20
54590;DHT22;40485;53.172;5.416;2022-08-21T11:30:03;26.70;74.10
54590;DHT22;40485;53.172;5.416;2022-08-21T11:35:23;26.90;74.10
54590;DHT22;40485;53.172;5.416;2022-08-21T11:43:07;27.20;72.80
54590;DHT22;40485;53.172;5.416;2022-08-21T11:50:56;27.20;70.90
54590;DHT22;40485;53.172;5.416;2022-08-21T11:53:26;27.30;70.70
54590;DHT22;40485;53.172;5.416;2022-08-21T11:55:53;27.30;71.10
54590;DHT22;40485;53.172;5.416;2022-08-21T11:58:26;27.30;70.40
54590;DHT22;40485;53.172;5.416;2022-08-21T12:03:27;27.40;70.00
54590;DHT22;40485;53.172;5.416;2022-08-21T12:05:54;27.40;71.10
54590;DHT22;40485;53.172;5.416;2022-08-21T12:08:31;27.40;71.30
54590;DHT22;40485;53.172;5.416;2022-08-21T12:11:20;27.60;70.90
54590;DHT22;40485;53.172;5.416;2022-08-21T12:16:44;27.80;69.80
54590;DHT22;40485;53.172;5.416;2022-08-21T12:19:11;27.80;69.50
54590;DHT22;40485;53.172;5.416;2022-08-21T12:24:16;28.10;69.70
54590;DHT22;40485;53.172;5.416;2022-08-21T12:26:50;28.30;68.10
54590;DHT22;40485;53.172;5.416;2022-08-21T12:29:22;28.50;68.10
54590;DHT22;40485;53.172;5.416;2022-08-21T12:31:53;28.60;67.40
54590;DHT22;40485;53.172;5.416;2022-08-21T12:34:20;28.80;68.10
54590;DHT22;40485;53.172;5.416;2022-08-21T12:36:54;28.70;68.20
54590;DHT22;40485;53.172;5.416;2022-08-21T12:39:26;28.80;68.30
54590;DHT22;40485;53.172;5.416;2022-08-21T12:41:57;28.90;67.80
54590;DHT22;40485;53.172;5.416;2022-08-21T12:47:17;28.80;67.70
54590;DHT22;40485;53.172;5.416;2022-08-21T12:52:20;28.90;65.20
54590;DHT22;40485;53.172;5.416;2022-08-21T12:54:46;28.80;66.60
54590;DHT22;40485;53.172;5.416;2022-08-21T12:57:22;28.70;66.50
54590;DHT22;40485;53.172;5.416;2022-08-21T12:59:52;28.60;67.20
54590;DHT22;40485;53.172;5.416;2022-08-21T13:02:18;28.60;67.10
54590;DHT22;40485;53.172;5.416;2022-08-21T13:04:45;28.40;67.50
54590;DHT22;40485;53.172;5.416;2022-08-21T13:07:14;28.30;68.20
54590;DHT22;40485;53.172;5.416;2022-08-21T13:09:43;28.20;67.40
54590;DHT22;40485;53.172;5.416;2022-08-21T13:12:09;28.20;67.60
54590;DHT22;40485;53.172;5.416;2022-08-21T13:14:36;28.20;67.60
54590;DHT22;40485;53.172;5.416;2022-08-21T13:17:03;28.20;68.60
54590;DHT22;40485;53.172;5.416;2022-08-21T13:19:29;28.20;67.10
54590;DHT22;40485;53.172;5.416;2022-08-21T13:21:55;28.20;68.10
54590;DHT22;40485;53.172;5.416;2022-08-21T13:24:22;28.30;68.70
54590;DHT22;40485;53.172;5.416;2022-08-21T13:26:48;28.40;68.10
54590;DHT22;40485;53.172;5.416;2022-08-21T13:29:15;28.40;70.20
54590;DHT22;40485;53.172;5.416;2022-08-21T13:31:51;28.50;70.40
54590;DHT22;40485;53.172;5.416;2022-08-21T13:34:18;28.50;70.00
54590;DHT22;40485;53.172;5.416;2022-08-21T13:36:44;28.40;69.90
54590;DHT22;40485;53.172;5.416;2022-08-21T13:39:12;28.30;70.00
54590;DHT22;40485;53.172;5.416;2022-08-21T13:41:41;28.20;70.10
54590;DHT22;40485;53.172;5.416;2022-08-21T13:47:05;28.00;70.50
54590;DHT22;40485;53.172;5.416;2022-08-21T13:49:32;27.80;70.90
54590;DHT22;40485;53.172;5.416;2022-08-21T13:51:57;27.80;69.80
54590;DHT22;40485;53.172;5.416;2022-08-21T13:54:29;27.80;70.80
54590;DHT22;40485;53.172;5.416;2022-08-21T13:56:55;27.90;70.30
54590;DHT22;40485;53.172;5.416;2022-08-21T13:59:34;27.90;70.50
54590;DHT22;40485;53.172;5.416;2022-08-21T14:04:36;27.80;69.60
54590;DHT22;40485;53.172;5.416;2022-08-21T14:07:02;27.90;69.10
54590;DHT22;40485;53.172;5.416;2022-08-21T14:11:53;27.90;70.90
54590;DHT22;40485;53.172;5.416;2022-08-21T14:14:23;27.90;70.30
54590;DHT22;40485;53.172;5.416;2022-08-21T14:16:53;27.80;70.80
54590;DHT22;40485;53.172;5.416;2022-08-21T14:19:21;27.80;70.00
54590;DHT22;40485;53.172;5.416;2022-08-21T14:21:47;27.80;70.80
54590;DHT22;40485;53.172;5.416;2022-08-21T14:24:13;27.90;71.20
54590;DHT22;40485;53.172;5.416;2022-08-21T14:26:44;27.90;69.90
54590;DHT22;40485;53.172;5.416;2022-08-21T14:29:09;27.80;70.60
54590;DHT22;40485;53.172;5.416;2022-08-21T14:31:35;27.80;70.00
54590;DHT22;40485;53.172;5.416;2022-08-21T14:34:01;27.70;70.70
54590;DHT22;40485;53.172;5.416;2022-08-21T14:36:26;27.80;69.20
54590;DHT22;40485;53.172;5.416;2022-08-21T14:38:52;27.80;69.20
54590;DHT22;40485;53.172;5.416;2022-08-21T14:41:19;27.80;69.60
54590;DHT22;40485;53.172;5.416;2022-08-21T14:43:46;27.90;68.90
54590;DHT22;40485;53.172;5.416;2022-08-21T14:46:23;27.80;69.50
54590;DHT22;40485;53.172;5.416;2022-08-21T14:48:48;27.80;69.00
54590;DHT22;40485;53.172;5.416;2022-08-21T14:51:14;27.90;69.40
54590;DHT22;40485;53.172;5.416;2022-08-21T14:53:40;27.80;68.80
54590;DHT22;40485;53.172;5.416;2022-08-21T14:56:05;27.70;69.30
54590;DHT22;40485;53.172;5.416;2022-08-21T14:58:34;27.40;67.50
54590;DHT22;40485;53.172;5.416;2022-08-21T15:01:01;27.20;70.10
54590;DHT22;40485;53.172;5.416;2022-08-21T15:03:29;27.30;70.20
54590;DHT22;40485;53.172;5.416;2022-08-21T15:05:55;27.40;68.60
54590;DHT22;40485;53.172;5.416;2022-08-21T15:08:21;27.30;70.20
54590;DHT22;40485;53.172;5.416;2022-08-21T15:10:46;27.30;69.90
54590;DHT22;40485;53.172;5.416;2022-08-21T15:13:12;27.20;71.40
54590;DHT22;40485;53.172;5.416;2022-08-21T15:15:40;27.30;70.20
54590;DHT22;40485;53.172;5.416;2022-08-21T15:18:05;27.40;69.50
54590;DHT22;40485;53.172;5.416;2022-08-21T15:20:31;27.20;70.40
54590;DHT22;40485;53.172;5.416;2022-08-21T15:22:56;27.20;70.60
54590;DHT22;40485;53.172;5.416;2022-08-21T15:25:22;27.30;69.20
54590;DHT22;40485;53.172;5.416;2022-08-21T15:27:47;27.10;68.70
54590;DHT22;40485;53.172;5.416;2022-08-21T15:30:13;27.20;69.30
54590;DHT22;40485;53.172;5.416;2022-08-21T15:32:39;27.00;69.10
54590;DHT22;40485;53.172;5.416;2022-08-21T15:35:05;26.70;69.00
54590;DHT22;40485;53.172;5.416;2022-08-21T15:37:31;26.60;68.70
54590;DHT22;40485;53.172;5.416;2022-08-21T15:39:57;26.40;67.80
54590;DHT22;40485;53.172;5.416;2022-08-21T15:42:23;26.40;67.50
54590;DHT22;40485;53.172;5.416;2022-08-21T15:44:49;26.50;68.00
54590;DHT22;40485;53.172;5.416;2022-08-21T15:47:17;26.50;68.10
54590;DHT22;40485;53.172;5.416;2022-08-21T15:49:43;26.60;64.20
54590;DHT22;40485;53.172;5.416;2022-08-21T15:52:11;26.60;64.50
54590;DHT22;40485;53.172;5.416;2022-08-21T15:54:37;26.40;66.00
54590;DHT22;40485;53.172;5.416;2022-08-21T15:57:02;26.50;67.10
54590;DHT22;40485;53.172;5.416;2022-08-21T15:59:28;26.50;66.90
54590;DHT22;40485;53.172;5.416;2022-08-21T16:01:54;26.50;67.20
54590;DHT22;40485;53.172;5.416;2022-08-21T16:04:24;26.40;66.70
54590;DHT22;40485;53.172;5.416;2022-08-21T16:06:51;26.40;67.10
54590;DHT22;40485;53.172;5.416;2022-08-21T16:09:17;26.30;67.90
54590;DHT22;40485;53.172;5.416;2022-08-21T16:11:42;26.30;67.60
54590;DHT22;40485;53.172;5.416;2022-08-21T16:14:08;26.30;67.30
54590;DHT22;40485;53.172;5.416;2022-08-21T16:16:35;26.30;67.10
54590;DHT22;40485;53.172;5.416;2022-08-21T16:19:02;26.20;67.40
54590;DHT22;40485;53.172;5.416;2022-08-21T16:21:28;26.20;67.20
54590;DHT22;40485;53.172;5.416;2022-08-21T16:23:53;26.10;67.10
54590;DHT22;40485;53.172;5.416;2022-08-21T16:26:19;26.10;67.10
54590;DHT22;40485;53.172;5.416;2022-08-21T16:28:45;26.10;66.30
54590;DHT22;40485;53.172;5.416;2022-08-21T16:31:11;26.00;67.70
54590;DHT22;40485;53.172;5.416;2022-08-21T16:33:38;25.90;69.60
54590;DHT22;40485;53.172;5.416;2022-08-21T16:36:05;25.90;68.10
54590;DHT22;40485;53.172;5.416;2022-08-21T16:38:31;25.90;68.30
54590;DHT22;40485;53.172;5.416;2022-08-21T16:40:58;25.80;67.90
54590;DHT22;40485;53.172;5.416;2022-08-21T16:43:24;25.80;68.70
54590;DHT22;40485;53.172;5.416;2022-08-21T16:45:50;25.80;69.70
54590;DHT22;40485;53.172;5.416;2022-08-21T16:48:16;25.70;71.20
54590;DHT22;40485;53.172;5.416;2022-08-21T16:50:41;25.70;72.00